SBMA

Details ICAO SBMA (MAB)
Name Maraba
Region Brazil
Timezone America/Belem (UTC-3.0)
Plans Departing 17
Arriving 23
Stats Elevation 357 ft / 109 m (AMSL)
Location -5.368588° -49.138025°
Runways 1
Magnetic Variation 20.524° W
Sunrise 2017-05-25 09:19:39 UTC / 2017-05-25 06:19:39 Local
Sunset 2017-05-25 21:10:17 UTC / 2017-05-25 18:10:17 Local
Advertisement - Login to hide

Runways

ID Width Length Bearing (true) Bearing (mag) Surface Threshold Offset Overrun Length
07 148 ft / 45 m 6,582 ft / 2,006 m 50.35° 70.87° Asphalt 0 ft / 0 m 195 ft / 59 m
25 148 ft / 45 m 6,582 ft / 2,006 m 230.35° 250.87° Asphalt 0 ft / 0 m 195 ft / 59 m

Map

Weather


0- 5 10 15 20 25 30 35+ Temperature / ° C

Clouds and Precipitation
Forecast for 2017-05-25 06:00 UTC. Updated an hour ago

Ground ~20,000 ft ~40,000 ft Winds

METAR

SBMA 250400Z 23003KT CAVOK 24/24 Q1014

TAF

Not found

Frequencies

Tower 125.90 MHz RDO
Warning: Do not use this data for real-world aviation or navigation. No guarantee of current accuracy is given.